SVA156 OERK-OEDF
Flight info
| Callsign | SVA156 |
|---|---|
| Flight time | 1h 8m |
| Altitude | 27000 |
| Route | EGPIN H744 ITUNI N687 MIBRA |
| Aircraft | B748/H-SDE3FGHIM1M2RWXY/LB1 |
Departure
| Time | 2026-05-05 23:35 |
|---|---|
| Airport | King Khalid International Airport (OERK) |
Arrival
| Time | 2026-05-06 00:43 |
|---|---|
| Airport | King Fahd International Airport (OEDF) |
| Time | Latitude | Longitude | Altitude | Speed | Heading |
|---|---|---|---|---|---|
| 2026-05-05 23:05 | 24.94374 | 46.71704 | 2042 ft | 0 kts | 239° |
| 2026-05-05 23:20 | 24.94379 | 46.71713 | 2042 ft | 4 kts | 237° |
| 2026-05-05 23:20 | 24.94395 | 46.71737 | 2046 ft | 4 kts | 226° |
| 2026-05-05 23:20 | 24.94415 | 46.71756 | 2048 ft | 4 kts | 209° |
| 2026-05-05 23:21 | 24.94439 | 46.71765 | 2046 ft | 4 kts | 173° |
| 2026-05-05 23:21 | 24.94452 | 46.71762 | 2044 ft | 0 kts | 147° |
| 2026-05-05 23:28 | 24.94447 | 46.71765 | 2045 ft | 2 kts | 147° |
| 2026-05-05 23:28 | 24.94436 | 46.71773 | 2047 ft | 4 kts | 148° |
| 2026-05-05 23:28 | 24.94406 | 46.71795 | 2044 ft | 5 kts | 141° |
| 2026-05-05 23:29 | 24.94389 | 46.71822 | 2049 ft | 5 kts | 115° |
| 2026-05-05 23:29 | 24.94385 | 46.71844 | 2049 ft | 5 kts | 95° |
| 2026-05-05 23:29 | 24.94392 | 46.71878 | 2047 ft | 4 kts | 70° |
| 2026-05-05 23:29 | 24.94400 | 46.71899 | 2049 ft | 4 kts | 65° |
| 2026-05-05 23:30 | 24.94414 | 46.71930 | 2050 ft | 6 kts | 62° |
| 2026-05-05 23:30 | 24.94427 | 46.71958 | 2050 ft | 7 kts | 66° |
| 2026-05-05 23:30 | 24.94430 | 46.72002 | 2042 ft | 6 kts | 103° |
| 2026-05-05 23:30 | 24.94420 | 46.72028 | 2047 ft | 6 kts | 118° |
| 2026-05-05 23:31 | 24.94412 | 46.72041 | 2048 ft | 6 kts | 123° |
| 2026-05-05 23:31 | 24.94410 | 46.72045 | 2048 ft | 5 kts | 126° |
| 2026-05-05 23:31 | 24.94407 | 46.72047 | 2047 ft | 2 kts | 134° |
| 2026-05-05 23:31 | 24.94396 | 46.72054 | 2050 ft | 2 kts | 152° |
| 2026-05-05 23:32 | 24.94380 | 46.72064 | 2049 ft | 3 kts | 147° |
| 2026-05-05 23:32 | 24.94365 | 46.72079 | 2043 ft | 3 kts | 133° |
| 2026-05-05 23:32 | 24.94351 | 46.72106 | 2045 ft | 4 kts | 109° |
| 2026-05-05 23:32 | 24.94349 | 46.72136 | 2043 ft | 3 kts | 87° |
| 2026-05-05 23:33 | 24.94353 | 46.72149 | 2044 ft | 1 kts | 65° |
| 2026-05-05 23:33 | 24.94361 | 46.72168 | 2047 ft | 4 kts | 62° |
| 2026-05-05 23:33 | 24.94382 | 46.72205 | 2047 ft | 7 kts | 55° |
| 2026-05-05 23:33 | 24.94422 | 46.72237 | 2049 ft | 7 kts | 17° |
| 2026-05-05 23:34 | 24.94474 | 46.72228 | 2046 ft | 9 kts | 336° |
| 2026-05-05 23:34 | 24.94540 | 46.72189 | 2047 ft | 15 kts | 330° |
| 2026-05-05 23:34 | 24.94689 | 46.72096 | 2047 ft | 38 kts | 330° |
| 2026-05-05 23:34 | 24.95128 | 46.71818 | 2046 ft | 119 kts | 330° |
| 2026-05-05 23:35 | 24.96100 | 46.71198 | 2105 ft | 197 kts | 331° |
| 2026-05-05 23:35 | 24.97381 | 46.70383 | 2955 ft | 217 kts | 332° |
| 2026-05-05 23:35 | 24.98727 | 46.69482 | 3724 ft | 231 kts | 331° |
| 2026-05-05 23:35 | 24.99840 | 46.68731 | 3969 ft | 244 kts | 331° |
| 2026-05-05 23:36 | 25.01102 | 46.67892 | 4149 ft | 256 kts | 332° |
| 2026-05-05 23:36 | 25.02361 | 46.67062 | 4448 ft | 263 kts | 330° |
| 2026-05-05 23:36 | 25.03967 | 46.66041 | 4874 ft | 268 kts | 330° |
| 2026-05-05 23:36 | 25.05605 | 46.65046 | 5399 ft | 278 kts | 331° |
| 2026-05-05 23:37 | 25.07311 | 46.64033 | 6221 ft | 287 kts | 330° |
| 2026-05-05 23:37 | 25.09065 | 46.63018 | 7104 ft | 291 kts | 331° |
| 2026-05-05 23:37 | 25.10873 | 46.61989 | 8074 ft | 294 kts | 331° |
| 2026-05-05 23:37 | 25.12699 | 46.60961 | 9059 ft | 298 kts | 331° |
| 2026-05-05 23:38 | 25.14557 | 46.59922 | 10033 ft | 301 kts | 330° |
| 2026-05-05 23:38 | 25.16465 | 46.58866 | 10828 ft | 312 kts | 331° |
| 2026-05-05 23:38 | 25.18458 | 46.57773 | 11424 ft | 330 kts | 331° |
| 2026-05-05 23:38 | 25.20554 | 46.56628 | 12004 ft | 348 kts | 331° |
| 2026-05-05 23:39 | 25.22780 | 46.55415 | 12575 ft | 367 kts | 331° |
| 2026-05-05 23:39 | 25.25132 | 46.54139 | 13140 ft | 385 kts | 331° |
| 2026-05-05 23:39 | 25.27600 | 46.52807 | 13962 ft | 394 kts | 331° |
| 2026-05-05 23:39 | 25.30063 | 46.51486 | 14784 ft | 401 kts | 331° |
| 2026-05-05 23:40 | 25.32587 | 46.50142 | 15646 ft | 408 kts | 330° |
| 2026-05-05 23:40 | 25.35175 | 46.48779 | 16495 ft | 414 kts | 330° |
| 2026-05-05 23:40 | 25.37788 | 46.47421 | 17337 ft | 421 kts | 330° |
| 2026-05-05 23:40 | 25.40482 | 46.46043 | 18188 ft | 428 kts | 331° |
| 2026-05-05 23:41 | 25.43203 | 46.44664 | 18911 ft | 434 kts | 331° |
| 2026-05-05 23:41 | 25.45977 | 46.43265 | 19653 ft | 438 kts | 331° |
| 2026-05-05 23:41 | 25.48768 | 46.41860 | 20407 ft | 443 kts | 331° |
| 2026-05-05 23:41 | 25.51587 | 46.40444 | 21151 ft | 447 kts | 331° |
| 2026-05-05 23:42 | 25.54394 | 46.39035 | 21890 ft | 451 kts | 331° |
| 2026-05-05 23:42 | 25.57265 | 46.37600 | 22619 ft | 454 kts | 331° |
| 2026-05-05 23:42 | 25.60174 | 46.36154 | 23365 ft | 458 kts | 331° |
| 2026-05-05 23:42 | 25.63096 | 46.34730 | 23979 ft | 462 kts | 333° |
| 2026-05-05 23:43 | 25.66217 | 46.33692 | 24564 ft | 472 kts | 342° |
| 2026-05-05 23:43 | 25.69535 | 46.33328 | 25142 ft | 486 kts | 356° |
| 2026-05-05 23:43 | 25.72624 | 46.33471 | 25650 ft | 490 kts | 357° |
| 2026-05-05 23:43 | 25.75808 | 46.33633 | 26157 ft | 494 kts | 357° |
| 2026-05-05 23:44 | 25.78813 | 46.33795 | 26602 ft | 498 kts | 357° |
| 2026-05-05 23:44 | 25.82151 | 46.34209 | 26889 ft | 508 kts | 5° |
| 2026-05-05 23:44 | 25.85368 | 46.35028 | 26905 ft | 510 kts | 10° |
| 2026-05-05 23:44 | 25.88772 | 46.36128 | 26904 ft | 511 kts | 12° |
| 2026-05-05 23:45 | 25.91691 | 46.37163 | 26912 ft | 511 kts | 13° |
| 2026-05-05 23:45 | 25.94357 | 46.38146 | 26909 ft | 511 kts | 14° |
| 2026-05-05 23:45 | 25.97365 | 46.39279 | 26909 ft | 511 kts | 14° |
| 2026-05-05 23:45 | 26.00569 | 46.40498 | 26902 ft | 511 kts | 14° |
| 2026-05-05 23:46 | 26.03930 | 46.41785 | 26912 ft | 511 kts | 14° |
| 2026-05-05 23:46 | 26.06918 | 46.42930 | 26921 ft | 511 kts | 14° |
| 2026-05-05 23:46 | 26.10069 | 46.44140 | 26918 ft | 509 kts | 14° |
| 2026-05-05 23:46 | 26.13319 | 46.45388 | 26915 ft | 508 kts | 14° |
| 2026-05-05 23:47 | 26.15972 | 46.46408 | 26909 ft | 507 kts | 14° |
| 2026-05-05 23:47 | 26.19297 | 46.47688 | 26897 ft | 506 kts | 14° |
| 2026-05-05 23:47 | 26.22260 | 46.48828 | 26915 ft | 507 kts | 14° |
| 2026-05-05 23:47 | 26.25620 | 46.50118 | 26929 ft | 510 kts | 14° |
| 2026-05-05 23:48 | 26.28154 | 46.51095 | 26912 ft | 511 kts | 14° |
| 2026-05-05 23:48 | 26.30156 | 46.51869 | 26912 ft | 511 kts | 14° |
| 2026-05-05 23:48 | 26.33699 | 46.53242 | 26912 ft | 511 kts | 14° |
| 2026-05-05 23:48 | 26.36792 | 46.54441 | 26916 ft | 511 kts | 14° |
| 2026-05-05 23:49 | 26.40154 | 46.55745 | 26911 ft | 511 kts | 14° |
| 2026-05-05 23:49 | 26.42844 | 46.56788 | 26909 ft | 512 kts | 14° |
| 2026-05-05 23:49 | 26.46067 | 46.58039 | 26901 ft | 511 kts | 14° |
| 2026-05-05 23:49 | 26.49239 | 46.59272 | 26911 ft | 511 kts | 14° |
| 2026-05-05 23:50 | 26.52476 | 46.60530 | 26913 ft | 511 kts | 14° |
| 2026-05-05 23:50 | 26.55776 | 46.61816 | 26907 ft | 511 kts | 14° |
| 2026-05-05 23:50 | 26.59082 | 46.63111 | 26897 ft | 497 kts | 14° |
| 2026-05-05 23:50 | 26.62323 | 46.64349 | 26895 ft | 490 kts | 11° |
| 2026-05-05 23:51 | 26.65627 | 46.65280 | 26894 ft | 489 kts | 7° |
| 2026-05-05 23:51 | 26.68954 | 46.66059 | 26889 ft | 487 kts | 5° |
| 2026-05-05 23:51 | 26.72284 | 46.66774 | 26893 ft | 487 kts | 5° |
| 2026-05-05 23:51 | 26.75614 | 46.67461 | 26892 ft | 487 kts | 5° |
| 2026-05-05 23:52 | 26.78908 | 46.68135 | 26892 ft | 473 kts | 4° |
| 2026-05-05 23:52 | 26.82090 | 46.68795 | 26886 ft | 457 kts | 4° |
| 2026-05-05 23:52 | 26.85161 | 46.69446 | 26883 ft | 441 kts | 4° |
| 2026-05-05 23:52 | 26.88130 | 46.70087 | 26881 ft | 427 kts | 4° |
| 2026-05-05 23:53 | 26.90996 | 46.70720 | 26881 ft | 414 kts | 4° |
| 2026-05-05 23:53 | 26.93796 | 46.71343 | 26893 ft | 421 kts | 4° |
| 2026-05-05 23:53 | 26.96771 | 46.71991 | 26898 ft | 439 kts | 4° |
| 2026-05-05 23:53 | 26.99798 | 46.72635 | 26912 ft | 456 kts | 4° |
| 2026-05-05 23:54 | 27.02979 | 46.73298 | 26914 ft | 474 kts | 4° |
| 2026-05-05 23:54 | 27.06284 | 46.73976 | 26911 ft | 491 kts | 4° |
| 2026-05-05 23:54 | 27.09699 | 46.74666 | 26911 ft | 504 kts | 4° |
| 2026-05-05 23:54 | 27.13165 | 46.75362 | 26906 ft | 505 kts | 4° |
| 2026-05-05 23:55 | 27.16622 | 46.76057 | 26904 ft | 506 kts | 4° |
| 2026-05-05 23:55 | 27.20089 | 46.76754 | 26902 ft | 506 kts | 4° |
| 2026-05-05 23:55 | 27.23525 | 46.77448 | 26899 ft | 495 kts | 4° |
| 2026-05-05 23:55 | 27.26859 | 46.78134 | 26893 ft | 477 kts | 4° |
| 2026-05-05 23:56 | 27.30032 | 46.78800 | 26877 ft | 461 kts | 4° |
| 2026-05-05 23:56 | 27.33143 | 46.79468 | 26882 ft | 446 kts | 4° |
| 2026-05-05 23:56 | 27.36134 | 46.80124 | 26861 ft | 431 kts | 4° |
| 2026-05-05 23:56 | 27.39023 | 46.80770 | 26873 ft | 418 kts | 4° |
| 2026-05-05 23:57 | 27.41822 | 46.81408 | 26869 ft | 405 kts | 4° |
| 2026-05-05 23:57 | 27.44586 | 46.82044 | 26882 ft | 409 kts | 4° |
| 2026-05-05 23:57 | 27.47439 | 46.82684 | 26882 ft | 427 kts | 4° |
| 2026-05-05 23:57 | 27.50416 | 46.83334 | 26906 ft | 445 kts | 4° |
| 2026-05-05 23:58 | 27.53525 | 46.83999 | 26905 ft | 463 kts | 4° |
| 2026-05-05 23:58 | 27.56750 | 46.84671 | 26898 ft | 480 kts | 4° |
| 2026-05-05 23:58 | 27.60101 | 46.85359 | 26902 ft | 497 kts | 4° |
| 2026-05-05 23:58 | 27.63561 | 46.86058 | 26902 ft | 507 kts | 4° |
| 2026-05-05 23:59 | 27.67017 | 46.86754 | 26900 ft | 507 kts | 4° |
| 2026-05-05 23:59 | 27.70455 | 46.87446 | 26894 ft | 508 kts | 4° |
| 2026-05-05 23:59 | 27.73935 | 46.88146 | 26881 ft | 508 kts | 4° |
| 2026-05-05 23:59 | 27.77404 | 46.88844 | 26885 ft | 508 kts | 4° |
| 2026-05-06 00:00 | 27.80814 | 46.89530 | 26884 ft | 508 kts | 4° |
| 2026-05-06 00:00 | 27.84312 | 46.90235 | 26882 ft | 508 kts | 4° |
| 2026-05-06 00:00 | 27.87746 | 46.91189 | 26549 ft | 518 kts | 19° |
| 2026-05-06 00:00 | 27.91007 | 46.92860 | 26477 ft | 507 kts | 14° |
| 2026-05-06 00:01 | 27.94396 | 46.93994 | 26652 ft | 510 kts | 8° |
| 2026-05-06 00:01 | 27.97834 | 46.95088 | 26619 ft | 518 kts | 17° |
| 2026-05-06 00:01 | 28.01031 | 46.96922 | 25858 ft | 525 kts | 28° |
| 2026-05-06 00:01 | 28.04004 | 46.99378 | 24830 ft | 532 kts | 38° |
| 2026-05-06 00:02 | 28.06709 | 47.02230 | 24052 ft | 531 kts | 44° |
| 2026-05-06 00:02 | 28.09166 | 47.05315 | 23674 ft | 518 kts | 49° |
| 2026-05-06 00:02 | 28.11375 | 47.08442 | 23573 ft | 500 kts | 48° |
| 2026-05-06 00:02 | 28.13908 | 47.11076 | 23728 ft | 494 kts | 31° |
| 2026-05-06 00:03 | 28.16916 | 47.12951 | 23872 ft | 493 kts | 28° |
| 2026-05-06 00:03 | 28.19673 | 47.15281 | 24011 ft | 498 kts | 37° |
| 2026-05-06 00:03 | 28.22352 | 47.17780 | 24081 ft | 500 kts | 41° |
| 2026-05-06 00:03 | 28.24705 | 47.20703 | 24089 ft | 503 kts | 53° |
| 2026-05-06 00:04 | 28.26504 | 47.24104 | 24089 ft | 503 kts | 66° |
| 2026-05-06 00:04 | 28.27653 | 47.27787 | 24090 ft | 502 kts | 78° |
| 2026-05-06 00:04 | 28.28137 | 47.31690 | 24085 ft | 498 kts | 91° |
| 2026-05-06 00:04 | 28.27921 | 47.35568 | 24085 ft | 493 kts | 104° |
| 2026-05-06 00:05 | 28.25493 | 47.42660 | 24084 ft | 477 kts | 128° |
| 2026-05-06 00:05 | 28.23537 | 47.45691 | 24083 ft | 472 kts | 134° |
| 2026-05-06 00:05 | 28.21423 | 47.48530 | 24073 ft | 470 kts | 137° |
| 2026-05-06 00:06 | 28.19245 | 47.51305 | 24075 ft | 470 kts | 137° |
| 2026-05-06 00:06 | 28.17070 | 47.54064 | 24065 ft | 470 kts | 137° |
| 2026-05-06 00:06 | 28.14887 | 47.56834 | 24063 ft | 470 kts | 137° |
| 2026-05-06 00:06 | 28.12708 | 47.59598 | 24065 ft | 471 kts | 137° |
| 2026-05-06 00:07 | 28.10529 | 47.62361 | 24067 ft | 470 kts | 137° |
| 2026-05-06 00:07 | 28.08343 | 47.65131 | 24065 ft | 470 kts | 137° |
| 2026-05-06 00:07 | 28.06165 | 47.67891 | 24066 ft | 470 kts | 137° |
| 2026-05-06 00:07 | 28.03989 | 47.70648 | 24067 ft | 470 kts | 137° |
| 2026-05-06 00:08 | 28.01796 | 47.73422 | 24055 ft | 472 kts | 137° |
| 2026-05-06 00:08 | 27.99607 | 47.76185 | 24055 ft | 472 kts | 137° |
| 2026-05-06 00:08 | 27.97410 | 47.78955 | 24055 ft | 472 kts | 137° |
| 2026-05-06 00:08 | 27.95228 | 47.81709 | 24056 ft | 465 kts | 137° |
| 2026-05-06 00:09 | 27.93143 | 47.84355 | 24047 ft | 447 kts | 137° |
| 2026-05-06 00:09 | 27.91101 | 47.86966 | 24034 ft | 429 kts | 137° |
| 2026-05-06 00:09 | 27.89194 | 47.89419 | 24037 ft | 412 kts | 137° |
| 2026-05-06 00:09 | 27.87320 | 47.91792 | 24034 ft | 396 kts | 138° |
| 2026-05-06 00:10 | 27.85500 | 47.94075 | 24034 ft | 388 kts | 138° |
| 2026-05-06 00:10 | 27.83649 | 47.96376 | 24044 ft | 403 kts | 138° |
| 2026-05-06 00:10 | 27.81702 | 47.98767 | 24055 ft | 423 kts | 138° |
| 2026-05-06 00:10 | 27.79655 | 48.01255 | 24064 ft | 442 kts | 138° |
| 2026-05-06 00:11 | 27.77514 | 48.03840 | 24068 ft | 460 kts | 139° |
| 2026-05-06 00:11 | 27.75284 | 48.06518 | 24053 ft | 472 kts | 138° |
| 2026-05-06 00:11 | 27.73037 | 48.09214 | 24041 ft | 472 kts | 138° |
| 2026-05-06 00:11 | 27.70797 | 48.11891 | 24045 ft | 476 kts | 138° |
| 2026-05-06 00:12 | 27.68529 | 48.14597 | 24040 ft | 474 kts | 138° |
| 2026-05-06 00:12 | 27.66255 | 48.17306 | 24041 ft | 478 kts | 138° |
| 2026-05-06 00:12 | 27.63958 | 48.20039 | 24047 ft | 478 kts | 138° |
| 2026-05-06 00:12 | 27.61674 | 48.22757 | 24055 ft | 477 kts | 139° |
| 2026-05-06 00:13 | 27.59385 | 48.25486 | 24049 ft | 477 kts | 139° |
| 2026-05-06 00:13 | 27.57123 | 48.28192 | 24035 ft | 467 kts | 138° |
| 2026-05-06 00:13 | 27.54946 | 48.30812 | 24030 ft | 450 kts | 138° |
| 2026-05-06 00:13 | 27.52829 | 48.33372 | 24031 ft | 448 kts | 138° |
| 2026-05-06 00:14 | 27.50681 | 48.35956 | 24037 ft | 467 kts | 138° |
| 2026-05-06 00:14 | 27.48399 | 48.38687 | 23964 ft | 473 kts | 138° |
| 2026-05-06 00:14 | 27.46181 | 48.41337 | 23594 ft | 469 kts | 138° |
| 2026-05-06 00:14 | 27.44102 | 48.44162 | 23050 ft | 470 kts | 130° |
| 2026-05-06 00:15 | 27.42297 | 48.47210 | 22447 ft | 467 kts | 126° |
| 2026-05-06 00:15 | 27.40619 | 48.50329 | 21869 ft | 463 kts | 124° |
| 2026-05-06 00:15 | 27.39013 | 48.53435 | 21313 ft | 458 kts | 123° |
| 2026-05-06 00:15 | 27.37444 | 48.56524 | 20938 ft | 450 kts | 123° |
| 2026-05-06 00:16 | 27.35925 | 48.59548 | 20727 ft | 437 kts | 123° |
| 2026-05-06 00:16 | 27.34464 | 48.62475 | 20601 ft | 424 kts | 123° |
| 2026-05-06 00:16 | 27.33041 | 48.65342 | 20441 ft | 413 kts | 123° |
| 2026-05-06 00:16 | 27.31662 | 48.68131 | 20244 ft | 402 kts | 123° |
| 2026-05-06 00:17 | 27.30347 | 48.70808 | 19932 ft | 379 kts | 123° |
| 2026-05-06 00:17 | 27.29105 | 48.73355 | 19377 ft | 368 kts | 123° |
| 2026-05-06 00:17 | 27.27878 | 48.75852 | 18642 ft | 363 kts | 123° |
| 2026-05-06 00:17 | 27.26671 | 48.78298 | 17904 ft | 359 kts | 123° |
| 2026-05-06 00:18 | 27.25465 | 48.80736 | 17118 ft | 354 kts | 123° |
| 2026-05-06 00:18 | 27.24272 | 48.83139 | 16350 ft | 350 kts | 123° |
| 2026-05-06 00:18 | 27.23087 | 48.85510 | 15608 ft | 346 kts | 123° |
| 2026-05-06 00:18 | 27.21910 | 48.87845 | 14882 ft | 342 kts | 123° |
| 2026-05-06 00:19 | 27.20732 | 48.90168 | 14175 ft | 339 kts | 123° |
| 2026-05-06 00:19 | 27.19562 | 48.92456 | 13463 ft | 337 kts | 123° |
| 2026-05-06 00:19 | 27.18394 | 48.94723 | 12738 ft | 333 kts | 123° |
| 2026-05-06 00:19 | 27.17253 | 48.96934 | 12262 ft | 321 kts | 123° |
| 2026-05-06 00:20 | 27.16159 | 48.99062 | 11883 ft | 304 kts | 123° |
| 2026-05-06 00:20 | 27.15477 | 49.00382 | 11632 ft | 287 kts | 123° |
| 2026-05-06 00:20 | 27.14503 | 49.02244 | 11229 ft | 266 kts | 123° |
| 2026-05-06 00:20 | 27.13596 | 49.03967 | 10848 ft | 247 kts | 123° |
| 2026-05-06 00:21 | 27.12749 | 49.05582 | 10483 ft | 233 kts | 123° |
| 2026-05-06 00:21 | 27.11940 | 49.07134 | 9996 ft | 228 kts | 123° |
| 2026-05-06 00:21 | 27.11149 | 49.08659 | 9509 ft | 224 kts | 122° |
| 2026-05-06 00:21 | 27.10359 | 49.10153 | 9145 ft | 221 kts | 122° |
| 2026-05-06 00:22 | 27.09574 | 49.11630 | 8771 ft | 220 kts | 122° |
| 2026-05-06 00:22 | 27.08804 | 49.13078 | 8409 ft | 218 kts | 123° |
| 2026-05-06 00:22 | 27.08030 | 49.14531 | 8036 ft | 216 kts | 123° |
| 2026-05-06 00:22 | 27.07261 | 49.15976 | 7683 ft | 215 kts | 123° |
| 2026-05-06 00:23 | 27.06501 | 49.17406 | 7327 ft | 213 kts | 122° |
| 2026-05-06 00:23 | 27.05741 | 49.18817 | 6987 ft | 210 kts | 123° |
| 2026-05-06 00:23 | 27.04979 | 49.20210 | 6630 ft | 208 kts | 123° |
| 2026-05-06 00:23 | 27.04223 | 49.21586 | 6153 ft | 205 kts | 123° |
| 2026-05-06 00:24 | 27.03479 | 49.22946 | 5645 ft | 202 kts | 123° |
| 2026-05-06 00:24 | 27.02761 | 49.24283 | 5148 ft | 199 kts | 123° |
| 2026-05-06 00:24 | 27.02062 | 49.25613 | 4628 ft | 197 kts | 122° |
| 2026-05-06 00:24 | 27.01298 | 49.27054 | 4612 ft | 232 kts | 122° |
| 2026-05-06 00:25 | 27.00413 | 49.28703 | 4720 ft | 260 kts | 122° |
| 2026-05-06 00:25 | 26.99432 | 49.30494 | 4799 ft | 276 kts | 123° |
| 2026-05-06 00:25 | 26.98525 | 49.32194 | 4627 ft | 234 kts | 124° |
| 2026-05-06 00:25 | 26.97781 | 49.33656 | 4411 ft | 202 kts | 122° |
| 2026-05-06 00:26 | 26.97125 | 49.34962 | 4015 ft | 190 kts | 123° |
| 2026-05-06 00:26 | 26.96487 | 49.36232 | 3569 ft | 185 kts | 122° |
| 2026-05-06 00:26 | 26.95866 | 49.37474 | 3087 ft | 181 kts | 123° |
| 2026-05-06 00:26 | 26.95257 | 49.38700 | 2625 ft | 179 kts | 123° |
| 2026-05-06 00:27 | 26.94649 | 49.39913 | 2168 ft | 178 kts | 124° |
| 2026-05-06 00:27 | 26.94048 | 49.41095 | 1855 ft | 169 kts | 122° |
| 2026-05-06 00:27 | 26.93454 | 49.42228 | 1880 ft | 173 kts | 123° |
| 2026-05-06 00:27 | 26.92841 | 49.43374 | 1867 ft | 170 kts | 124° |
| 2026-05-06 00:28 | 26.92226 | 49.44525 | 1860 ft | 169 kts | 122° |
| 2026-05-06 00:28 | 26.91596 | 49.45673 | 1872 ft | 175 kts | 122° |
| 2026-05-06 00:28 | 26.90977 | 49.46817 | 1871 ft | 171 kts | 124° |
| 2026-05-06 00:28 | 26.90330 | 49.48041 | 1907 ft | 201 kts | 124° |
| 2026-05-06 00:29 | 26.89658 | 49.49333 | 2018 ft | 181 kts | 124° |
| 2026-05-06 00:29 | 26.89026 | 49.50572 | 1634 ft | 183 kts | 122° |
| 2026-05-06 00:29 | 26.88378 | 49.51759 | 1504 ft | 179 kts | 123° |
| 2026-05-06 00:29 | 26.87711 | 49.52963 | 1607 ft | 183 kts | 122° |
| 2026-05-06 00:30 | 26.87032 | 49.54172 | 1648 ft | 185 kts | 123° |
| 2026-05-06 00:30 | 26.86379 | 49.55365 | 1712 ft | 177 kts | 123° |
| 2026-05-06 00:30 | 26.85742 | 49.56547 | 2134 ft | 181 kts | 123° |
| 2026-05-06 00:30 | 26.85119 | 49.57760 | 2553 ft | 177 kts | 123° |
| 2026-05-06 00:31 | 26.84497 | 49.58984 | 2847 ft | 183 kts | 123° |
| 2026-05-06 00:31 | 26.83878 | 49.60203 | 2852 ft | 176 kts | 123° |
| 2026-05-06 00:31 | 26.83264 | 49.61395 | 2858 ft | 177 kts | 123° |
| 2026-05-06 00:31 | 26.82654 | 49.62584 | 2847 ft | 176 kts | 123° |
| 2026-05-06 00:32 | 26.82044 | 49.63785 | 2845 ft | 178 kts | 123° |
| 2026-05-06 00:32 | 26.81434 | 49.65002 | 2855 ft | 179 kts | 123° |
| 2026-05-06 00:32 | 26.80828 | 49.66211 | 2858 ft | 179 kts | 123° |
| 2026-05-06 00:32 | 26.80212 | 49.67426 | 2857 ft | 178 kts | 123° |
| 2026-05-06 00:33 | 26.79600 | 49.68629 | 2853 ft | 177 kts | 123° |
| 2026-05-06 00:33 | 26.78995 | 49.69814 | 2856 ft | 177 kts | 123° |
| 2026-05-06 00:33 | 26.78405 | 49.70980 | 2844 ft | 170 kts | 124° |
| 2026-05-06 00:33 | 26.77580 | 49.71867 | 2843 ft | 163 kts | 154° |
| 2026-05-06 00:34 | 26.76627 | 49.72460 | 2865 ft | 166 kts | 155° |
| 2026-05-06 00:34 | 26.75597 | 49.73031 | 2853 ft | 164 kts | 160° |
| 2026-05-06 00:34 | 26.74539 | 49.73454 | 2854 ft | 165 kts | 162° |
| 2026-05-06 00:34 | 26.73483 | 49.73869 | 2857 ft | 165 kts | 162° |
| 2026-05-06 00:35 | 26.72402 | 49.74298 | 2864 ft | 164 kts | 162° |
| 2026-05-06 00:35 | 26.71330 | 49.74604 | 2847 ft | 161 kts | 172° |
| 2026-05-06 00:35 | 26.70257 | 49.74760 | 2836 ft | 154 kts | 173° |
| 2026-05-06 00:35 | 26.69204 | 49.74896 | 2833 ft | 154 kts | 173° |
| 2026-05-06 00:36 | 26.68579 | 49.74980 | 2805 ft | 149 kts | 173° |
| 2026-05-06 00:36 | 26.68511 | 49.74989 | 2787 ft | 148 kts | 173° |
| 2026-05-06 00:36 | 26.68237 | 49.75027 | 2652 ft | 150 kts | 173° |
| 2026-05-06 00:36 | 26.67184 | 49.75177 | 2181 ft | 154 kts | 174° |
| 2026-05-06 00:37 | 26.66126 | 49.75368 | 1824 ft | 151 kts | 165° |
| 2026-05-06 00:37 | 26.65102 | 49.75638 | 1660 ft | 157 kts | 176° |
| 2026-05-06 00:37 | 26.64012 | 49.75691 | 1850 ft | 163 kts | 175° |
| 2026-05-06 00:37 | 26.63591 | 49.75745 | 1957 ft | 158 kts | 172° |
| 2026-05-06 00:38 | 26.62588 | 49.76075 | 2353 ft | 154 kts | 163° |
| 2026-05-06 00:38 | 26.61592 | 49.76479 | 2740 ft | 154 kts | 161° |
| 2026-05-06 00:38 | 26.60591 | 49.76891 | 2968 ft | 152 kts | 163° |
| 2026-05-06 00:38 | 26.59765 | 49.77155 | 2976 ft | 153 kts | 167° |
| 2026-05-06 00:39 | 26.59234 | 49.77301 | 2940 ft | 149 kts | 167° |
| 2026-05-06 00:39 | 26.59191 | 49.77313 | 2940 ft | 149 kts | 166° |
| 2026-05-06 00:39 | 26.59124 | 49.77331 | 2939 ft | 149 kts | 166° |
| 2026-05-06 00:39 | 26.59058 | 49.77350 | 2933 ft | 149 kts | 166° |
| 2026-05-06 00:40 | 26.58179 | 49.77590 | 2949 ft | 151 kts | 167° |
| 2026-05-06 00:40 | 26.57136 | 49.77869 | 2801 ft | 151 kts | 166° |
| 2026-05-06 00:40 | 26.56154 | 49.78161 | 2507 ft | 144 kts | 165° |
| 2026-05-06 00:40 | 26.55175 | 49.78460 | 2144 ft | 144 kts | 166° |
| 2026-05-06 00:41 | 26.54212 | 49.78760 | 1803 ft | 144 kts | 167° |
| 2026-05-06 00:41 | 26.53192 | 49.79057 | 1408 ft | 158 kts | 167° |
| 2026-05-06 00:41 | 26.52138 | 49.79383 | 1093 ft | 157 kts | 165° |
| 2026-05-06 00:41 | 26.51076 | 49.79701 | 791 ft | 155 kts | 165° |
| 2026-05-06 00:42 | 26.50018 | 49.80011 | 451 ft | 157 kts | 163° |
| 2026-05-06 00:42 | 26.48983 | 49.80329 | 202 ft | 154 kts | 162° |
| 2026-05-06 00:42 | 26.48187 | 49.80571 | 98 ft | 139 kts | 163° |
| 2026-05-06 00:43 | 26.47398 | 49.80822 | 97 ft | 95 kts | 165° |
| 2026-05-06 00:43 | 26.47003 | 49.80936 | 95 ft | 38 kts | 162° |
| 2026-05-06 00:43 | 26.46932 | 49.80961 | 98 ft | 26 kts | 162° |
| 2026-05-06 00:44 | 26.46873 | 49.80983 | 97 ft | 12 kts | 162° |
| 2026-05-06 00:44 | 26.46856 | 49.80989 | 99 ft | 1 kts | 162° |
| 2026-05-06 00:44 | 26.46849 | 49.80992 | 98 ft | 2 kts | 162° |
| 2026-05-06 00:44 | 26.46841 | 49.80995 | 99 ft | 3 kts | 162° |
| 2026-05-06 00:45 | 26.46823 | 49.81001 | 99 ft | 5 kts | 162° |